Frampton Cotterell, United Kingdom
Current Conditions -  °F | °C
As of 2:20 PM on Saturday 20 Dec 2014 (Local Time) from EGGD Reporting Station
Broken Clouds Broken Clouds  
Wind Chill: 39°   Ceiling: 3500
Heat Index: 46°   Visibility: 6mi
Dew Point: 39°   Wind: 17mph
Humidity: 76%   Direction: 270°W
Pressure: 30.36"   Gusts: NA
Location:  51.51°N, 2.5°W
Report Text: EGGD 201420Z 27015KT 9999 FEW017 BKN035 08/04 Q1028
Loading
Personal Weather Stations






























Interactive Weather Map New forecast layout! Learn more

10-Day Weather Forecast

Advertisements
Track Severe Weather on mobile